Time;durP1;ratioP1;P1;durP2;ratioP2;P2;SDS_P1;SDS_P2;PMS_P1;PMS_P2;Temp;Humidity;BMP_temperature;BMP_pressure;BME280_temperature;BME280_humidity;BME280_pressure;Samples;Min_cycle;Max_cycle;Signal;HPM_P1;HPM_P2
2023/02/09 00:01:15;;;;;;;22.45;10.00;;;;;;;-4.59;100.00;103266.66;5109740;28;20024;-73
2023/02/09 00:03:42;;;;;;;16.33;9.43;;;;;;;-4.64;100.00;103259.66;5109689;28;20032;-74
2023/02/09 00:06:10;;;;;;;18.38;9.40;;;;;;;-4.68;100.00;103247.50;5109831;28;20060;-74
2023/02/09 00:08:36;;;;;;;15.57;9.27;;;;;;;-4.73;100.00;103237.91;5109709;28;20051;-73
2023/02/09 00:11:09;;;;;;;15.65;9.35;;;;;;;-4.72;100.00;103239.66;5112580;28;20085;-75
2023/02/09 00:13:35;;;;;;;16.40;9.77;;;;;;;-4.69;100.00;103235.34;5113681;28;20123;-74
2023/02/09 00:16:01;;;;;;;22.67;10.43;;;;;;;-4.68;100.00;103239.69;5113839;28;20094;-74
2023/02/09 00:18:28;;;;;;;15.70;8.90;;;;;;;-4.66;100.00;103240.59;5113921;28;20061;-74
2023/02/09 00:21:06;;;;;;;17.13;9.45;;;;;;;-4.68;100.00;103242.28;5113630;28;20451;-74
2023/02/09 00:23:33;;;;;;;16.60;9.48;;;;;;;-4.68;100.00;103237.09;5113955;28;20032;-74
2023/02/09 00:26:04;;;;;;;15.10;9.18;;;;;;;-4.66;100.00;103244.91;5113766;28;20027;-73
2023/02/09 00:28:29;;;;;;;;;;;;;;;-4.67;100.00;103238.84;5114308;28;20118;-73
2023/02/09 00:30:55;;;;;;;16.20;8.82;;;;;;;-4.68;100.00;103242.28;5113972;28;20017;-74
2023/02/09 00:33:22;;;;;;;19.08;10.43;;;;;;;-4.71;100.00;103244.00;5114440;28;20023;-74
2023/02/09 00:35:47;;;;;;;18.45;10.48;;;;;;;-4.72;100.00;103239.66;5112983;28;20111;-74
2023/02/09 00:38:13;;;;;;;18.88;10.13;;;;;;;-4.71;100.00;103239.66;5112259;28;20028;-73
2023/02/09 00:40:39;;;;;;;18.05;9.55;;;;;;;-4.72;100.00;103245.69;5113967;28;20031;-75
2023/02/09 00:43:06;;;;;;;16.00;9.63;;;;;;;-4.72;100.00;103239.66;5113858;28;20444;-74
2023/02/09 00:45:32;;;;;;;18.35;9.35;;;;;;;-4.74;100.00;103231.84;5113532;28;20028;-74
2023/02/09 00:47:57;;;;;;;22.65;9.88;;;;;;;-4.71;100.00;103228.41;5113176;28;20031;-73
2023/02/09 00:50:24;;;;;;;16.48;8.82;;;;;;;-4.67;100.00;103231.06;5113354;28;20468;-74
2023/02/09 00:52:50;;;;;;;16.05;8.15;;;;;;;-4.64;100.00;103225.03;5113445;28;20035;-73
2023/02/09 00:55:16;;;;;;;17.33;9.25;;;;;;;-4.63;100.00;103227.66;5112947;28;20420;-74
2023/02/09 00:57:41;;;;;;;18.05;8.43;;;;;;;-4.60;100.00;103226.78;5113015;28;20432;-74
2023/02/09 01:00:12;;;;;;;17.05;9.05;;;;;;;-4.59;100.00;103225.94;5113042;28;20100;-74
2023/02/09 01:02:38;;;;;;;15.98;9.05;;;;;;;-4.57;100.00;103223.38;5113398;28;20035;-74
2023/02/09 01:05:04;;;;;;;16.75;9.50;;;;;;;-4.57;100.00;103225.97;5113174;28;20072;-74
2023/02/09 01:07:30;;;;;;;15.18;9.25;;;;;;;-4.57;100.00;103218.16;5112663;28;20443;-73
2023/02/09 01:09:55;;;;;;;14.63;8.75;;;;;;;-4.55;100.00;103227.72;5113082;28;20083;-74
2023/02/09 01:12:20;;;;;;;17.83;9.52;;;;;;;-4.55;100.00;103219.94;5112931;28;20038;-74
2023/02/09 01:14:46;;;;;;;22.67;9.88;;;;;;;-4.54;100.00;103213.84;5112658;28;20035;-75
2023/02/09 01:17:11;;;;;;;15.57;8.93;;;;;;;-4.55;100.00;103219.94;5112721;28;20036;-74
2023/02/09 01:19:37;;;;;;;15.05;8.73;;;;;;;-4.56;100.00;103222.50;5111319;28;20108;-75
2023/02/09 01:22:02;;;;;;;17.42;9.00;;;;;;;-4.56;100.00;103231.16;5111581;28;20111;-74
2023/02/09 01:24:28;;;;;;;18.90;9.95;;;;;;;-4.56;100.00;103223.38;5112605;28;20088;-74
2023/02/09 01:26:53;;;;;;;19.20;10.00;;;;;;;-4.47;100.00;103233.00;5112801;28;20032;-75
2023/02/09 01:29:19;;;;;;;19.75;10.32;;;;;;;-4.42;100.00;103228.72;5112073;28;20109;-74
2023/02/09 01:31:48;;;;;;;14.80;9.80;;;;;;;-4.36;100.00;103228.81;5112623;28;20534;-75
2023/02/09 01:34:16;;;;;;;19.42;9.75;;;;;;;-4.31;100.00;103223.66;5110989;28;20084;-75
2023/02/09 01:36:43;;;;;;;14.57;9.35;;;;;;;-4.30;100.00;103212.38;5112552;28;20033;-73
2023/02/09 01:39:10;;;;;;;16.50;10.10;;;;;;;-4.33;100.00;103210.63;5112976;28;20405;-74
2023/02/09 01:41:36;;;;;;;17.92;9.90;;;;;;;-4.31;100.00;103206.31;5110793;28;20032;-74
2023/02/09 01:44:03;;;;;;;15.30;9.55;;;;;;;-4.31;100.00;103205.44;5111829;28;20156;-74
2023/02/09 01:46:34;;;;;;;20.33;9.77;;;;;;;-4.32;100.00;103214.94;5112470;28;20028;-75
2023/02/09 01:49:05;;;;;;;19.17;11.00;;;;;;;-4.29;100.00;103220.19;5112062;28;20036;-74
2023/02/09 01:51:35;;;;;;;19.92;10.35;;;;;;;-4.27;100.00;103218.50;5112631;28;20031;-73
2023/02/09 01:54:06;;;;;;;17.98;9.38;;;;;;;-4.25;100.00;103226.31;5112648;28;20489;-74
2023/02/09 01:56:32;;;;;;;19.92;9.40;;;;;;;-4.26;100.00;103217.59;5112415;28;20479;-75
2023/02/09 01:58:58;;;;;;;18.63;9.30;;;;;;;-4.28;100.00;103213.28;5112112;28;20043;-73
2023/02/09 02:01:24;;;;;;;15.98;8.90;;;;;;;-4.30;100.00;103202.88;5112532;28;20027;-75
2023/02/09 02:03:51;;;;;;;18.20;9.43;;;;;;;-4.32;100.00;103211.50;5093575;28;20038;-75
2023/02/09 02:06:17;;;;;;;17.33;10.55;;;;;;;-4.32;100.00;103208.91;5112599;28;20056;-73
2023/02/09 02:08:54;;;;;;;16.85;9.32;;;;;;;-4.34;100.00;103206.28;5112253;28;20494;-74
2023/02/09 02:11:21;;;;;;;15.68;9.20;;;;;;;-4.37;100.00;103201.06;5111957;28;20038;-73
2023/02/09 02:13:46;;;;;;;17.08;9.02;;;;;;;-4.40;100.00;103193.22;5111765;28;20035;-74
2023/02/09 02:16:14;;;;;;;15.65;9.18;;;;;;;-4.42;100.00;103187.13;5111978;28;20085;-74
2023/02/09 02:19:04;;;;;;;15.43;8.85;;;;;;;-4.40;100.00;103181.94;5112166;28;20132;-74
2023/02/09 02:21:33;;;;;;;15.52;9.55;;;;;;;-4.36;100.00;103171.63;5112183;28;20039;-74
2023/02/09 02:24:20;;;;;;;14.70;9.48;;;;;;;-4.31;100.00;103175.13;5110585;28;20032;-75
2023/02/09 02:27:04;;;;;;;21.98;9.18;;;;;;;-4.25;100.00;103172.56;5110514;28;20456;-74
2023/02/09 02:29:47;;;;;;;18.17;9.45;;;;;;;-4.16;100.00;103165.72;5111837;28;20038;-75
2023/02/09 02:32:51;;;;;;;13.50;8.73;;;;;;;-4.11;100.00;103169.22;5111416;28;20039;-75
2023/02/09 02:35:40;;;;;;;15.63;9.18;;;;;;;-4.10;100.00;103163.16;5108621;28;20078;-75
2023/02/09 02:38:23;;;;;;;17.65;8.93;;;;;;;-4.08;100.00;103166.63;5110008;28;20405;-74
2023/02/09 02:40:54;;;;;;;14.80;8.68;;;;;;;-4.08;100.00;103162.28;5111518;28;20123;-73
2023/02/09 02:43:52;;;;;;;18.38;8.65;;;;;;;-4.07;100.00;103156.25;5111148;28;20050;-75
2023/02/09 02:46:38;;;;;;;14.35;8.60;;;;;;;-4.04;100.00;103152.81;5111641;28;20078;-74
2023/02/09 02:49:21;;;;;;;17.42;9.30;;;;;;;-3.99;100.00;103140.69;5111188;28;20024;-73
2023/02/09 02:51:50;;;;;;;17.17;9.65;;;;;;;-3.92;100.00;103147.69;5111199;28;20027;-74
2023/02/09 02:54:27;;;;;;;17.70;9.60;;;;;;;-3.78;100.00;103144.28;5110786;28;20031;-73
2023/02/09 02:57:08;;;;;;;16.70;9.95;;;;;;;-3.67;100.00;103141.75;5110801;28;20028;-75
2023/02/09 02:59:40;;;;;;;18.70;9.02;;;;;;;-3.55;100.00;103129.69;5109350;28;20063;-74
2023/02/09 03:02:22;;;;;;;17.55;9.43;;;;;;;-3.50;100.00;103141.88;5110563;28;20084;-74
2023/02/09 03:04:51;;;;;;;17.65;9.35;;;;;;;-3.52;100.00;103139.25;5110750;28;20058;-74
2023/02/09 03:07:17;;;;;;;17.00;8.77;;;;;;;-3.53;100.00;103139.25;5110399;28;20051;-75
2023/02/09 03:09:55;;;;;;;22.70;9.57;;;;;;;-3.57;100.00;103138.34;5110664;28;20031;-75
2023/02/09 03:12:46;;;;;;;17.20;9.90;;;;;;;-3.65;100.00;103140.91;5111151;28;20038;-75
2023/02/09 03:15:33;;;;;;;16.65;9.30;;;;;;;-3.73;100.00;103133.06;5110400;28;20043;-75
2023/02/09 03:18:05;;;;;;;22.67;9.18;;;;;;;-3.75;100.00;103132.19;5110588;28;20032;-74
2023/02/09 03:20:48;;;;;;;16.70;9.27;;;;;;;-3.71;100.00;103125.28;5110638;28;20028;-75
2023/02/09 03:23:25;;;;;;;18.05;9.50;;;;;;;-3.67;100.00;103129.63;5110836;28;20368;-75
2023/02/09 03:25:54;;;;;;;15.43;9.10;;;;;;;-3.64;100.00;103124.44;5110657;28;20194;-75
2023/02/09 03:28:27;;;;;;;20.40;10.05;;;;;;;-3.64;100.00;103111.44;5110546;28;20039;-74
2023/02/09 03:30:53;;;;;;;21.05;10.13;;;;;;;-3.63;100.00;103109.69;5110785;27;20035;-75
2023/02/09 03:33:22;;;;;;;16.90;9.75;;;;;;;-3.69;100.00;103112.25;5110343;28;20114;-73
2023/02/09 03:35:52;;;;;;;18.67;10.60;;;;;;;-3.73;100.00;103109.66;5110387;28;20108;-74
2023/02/09 03:38:17;;;;;;;22.00;9.55;;;;;;;-3.74;100.00;103113.09;5110547;27;20026;-74
2023/02/09 03:40:43;;;;;;;16.85;10.20;;;;;;;-3.77;100.00;103107.03;5110597;28;20379;-74
2023/02/09 03:43:10;;;;;;;21.52;9.75;;;;;;;-3.86;100.00;103100.03;5110151;28;20035;-74
2023/02/09 03:45:36;;;;;;;16.60;9.25;;;;;;;-3.90;100.00;103106.06;5109381;28;20044;-74
2023/02/09 03:48:01;;;;;;;22.80;10.32;;;;;;;-3.94;100.00;103102.59;5110138;28;20112;-74
2023/02/09 03:50:28;;;;;;;16.50;9.13;;;;;;;-3.95;100.00;103097.38;5110402;28;20207;-74
2023/02/09 03:52:54;;;;;;;15.68;10.07;;;;;;;-3.91;100.00;103100.00;5110250;28;20032;-75
2023/02/09 03:55:19;;;;;;;17.58;9.65;;;;;;;-3.83;100.00;103100.03;5110402;28;20042;-74
2023/02/09 03:57:44;;;;;;;16.08;9.70;;;;;;;-3.79;100.00;103099.22;5110355;28;20031;-73
2023/02/09 04:00:10;;;;;;;17.08;9.43;;;;;;;-3.76;100.00;103106.16;5110532;28;20165;-74
2023/02/09 04:02:36;;;;;;;18.13;10.38;;;;;;;-3.76;100.00;103101.81;5110241;28;20444;-74
2023/02/09 04:05:01;;;;;;;22.80;10.23;;;;;;;-3.73;100.00;103090.56;5110643;28;20048;-74
2023/02/09 04:07:27;;;;;;;17.90;10.20;;;;;;;-3.67;100.00;103097.50;5110230;28;20446;-74
2023/02/09 04:09:52;;;;;;;17.65;9.57;;;;;;;-3.62;100.00;103093.22;5110306;28;20517;-73
2023/02/09 04:12:17;;;;;;;16.63;9.68;;;;;;;-3.61;100.00;103090.63;5110149;28;20035;-74
2023/02/09 04:14:43;;;;;;;20.40;10.30;;;;;;;-3.57;100.00;103096.69;5092080;28;20038;-73
2023/02/09 04:17:08;;;;;;;16.85;9.40;;;;;;;-3.56;100.00;103091.50;5110453;28;20031;-73
2023/02/09 04:19:34;;;;;;;21.15;10.02;;;;;;;-3.56;100.00;103094.09;5109892;28;20392;-75
2023/02/09 04:21:59;;;;;;;18.23;11.10;;;;;;;-3.58;100.00;103101.03;5110159;28;20107;-75
2023/02/09 04:24:25;;;;;;;17.02;10.23;;;;;;;-3.60;100.00;103092.38;5108951;28;20089;-74
2023/02/09 04:26:50;;;;;;;21.60;10.80;;;;;;;-3.59;100.00;103088.03;5110429;28;20133;-74
2023/02/09 04:29:16;;;;;;;27.98;11.45;;;;;;;-3.56;100.00;103088.91;5108538;28;20061;-74
2023/02/09 04:31:41;;;;;;;16.88;9.93;;;;;;;-3.53;100.00;103090.66;5109705;28;20389;-73
2023/02/09 04:34:06;;;;;;;18.95;10.07;;;;;;;-3.50;100.00;103100.22;5108218;28;20398;-75
2023/02/09 04:36:32;;;;;;;18.60;10.43;;;;;;;-3.51;100.00;103112.34;5109659;28;20059;-73
2023/02/09 04:38:57;;;;;;;16.67;10.00;;;;;;;-3.52;100.00;103110.63;5108173;28;20032;-75
2023/02/09 04:41:23;;;;;;;19.30;10.23;;;;;;;-3.52;100.00;103112.34;5109551;28;20032;-75
2023/02/09 04:43:48;;;;;;;19.65;10.27;;;;;;;-3.51;100.00;103124.50;5109394;28;20039;-74
2023/02/09 04:46:15;;;;;;;21.52;10.52;;;;;;;-3.51;100.00;103120.16;5109364;28;20039;-73
2023/02/09 04:48:41;;;;;;;17.48;11.00;;;;;;;-3.50;100.00;103127.09;5109494;28;20050;-74
2023/02/09 04:51:07;;;;;;;18.33;10.40;;;;;;;-3.42;100.00;103124.53;5109623;28;20357;-74
2023/02/09 04:53:32;;;;;;;19.92;10.98;;;;;;;-3.32;100.00;103125.47;5109317;28;20364;-74
2023/02/09 04:55:58;;;;;;;19.30;10.63;;;;;;;-3.25;100.00;103119.41;5110114;28;20676;-74
2023/02/09 05:01:12;;;;;;;15.80;10.50;;;;;;;-3.26;100.00;103117.66;5112020;28;20093;-78
2023/02/09 05:03:37;;;;;;;17.10;10.82;;;;;;;-3.19;100.00;103128.09;5113328;28;20080;-74
2023/02/09 05:06:04;;;;;;;18.85;10.60;;;;;;;-3.16;100.00;103128.97;5113687;28;20515;-74
2023/02/09 05:08:30;;;;;;;16.92;10.57;;;;;;;-3.11;100.00;103142.91;5111206;28;20090;-75
2023/02/09 05:10:55;;;;;;;23.15;10.98;;;;;;;-3.03;100.00;103155.09;5112915;28;20043;-74
2023/02/09 05:13:22;;;;;;;20.40;11.15;;;;;;;-3.01;100.00;103155.09;5113257;28;20115;-75
2023/02/09 05:15:48;;;;;;;15.55;10.02;;;;;;;-3.01;100.00;103149.88;5113265;28;20110;-75
2023/02/09 05:18:15;;;;;;;21.23;10.73;;;;;;;-3.03;100.00;103147.28;5094854;28;20083;-76
2023/02/09 05:20:42;;;;;;;20.02;10.38;;;;;;;-3.00;100.00;103146.44;5111855;28;20035;-76
2023/02/09 05:23:07;;;;;;;16.38;10.27;;;;;;;-2.97;100.00;103151.66;5113298;28;20032;-75
2023/02/09 05:25:33;;;;;;;18.42;9.80;;;;;;;-2.93;100.00;103148.16;5113523;28;20065;-75
2023/02/09 05:27:58;;;;;;;14.63;9.77;;;;;;;-2.88;100.00;103156.88;5112640;28;20428;-74
2023/02/09 05:30:25;;;;;;;16.73;9.65;;;;;;;-2.78;100.00;103157.75;5113084;28;20110;-75
2023/02/09 05:32:50;;;;;;;17.15;8.93;;;;;;;-2.74;100.00;103151.69;5113212;28;20036;-75
2023/02/09 05:35:16;;;;;;;17.58;10.05;;;;;;;-2.69;100.00;103156.91;5094557;28;20077;-75
2023/02/09 05:37:41;;;;;;;21.83;9.50;;;;;;;-2.59;100.00;103147.38;5113173;28;20051;-74
2023/02/09 05:40:07;;;;;;;19.83;8.65;;;;;;;-2.55;100.00;103133.50;5111644;28;20144;-74
2023/02/09 05:42:33;;;;;;;17.73;9.02;;;;;;;-2.58;100.00;103129.13;5111795;28;20172;-74
2023/02/09 05:44:58;;;;;;;17.30;8.73;;;;;;;-2.49;100.00;103129.13;5113268;28;20473;-74
2023/02/09 05:47:24;;;;;;;17.65;8.88;;;;;;;-2.47;100.00;103128.28;5112204;28;20034;-75
2023/02/09 05:49:51;;;;;;;15.57;8.70;;;;;;;-2.43;100.00;103141.31;5113021;28;20035;-74
2023/02/09 05:52:17;;;;;;;14.63;8.57;;;;;;;-2.43;100.00;103151.75;5112822;28;20173;-75
2023/02/09 05:54:43;;;;;;;12.80;8.65;;;;;;;-2.44;100.00;103164.78;5112668;28;20127;-74
2023/02/09 05:57:09;;;;;;;12.93;8.32;;;;;;;-2.50;100.00;103158.66;5112605;28;20114;-74
2023/02/09 05:59:34;;;;;;;14.70;8.07;;;;;;;-2.50;100.00;103163.03;5110638;28;20134;-75
2023/02/09 06:02:00;;;;;;;16.50;8.95;;;;;;;-2.55;100.00;103147.38;5112219;28;20028;-74
2023/02/09 06:04:27;;;;;;;13.60;8.63;;;;;;;-2.56;100.00;103145.63;5110884;28;20035;-75
2023/02/09 06:06:52;;;;;;;17.50;8.35;;;;;;;-2.57;100.00;103143.88;5110580;28;20305;-75
2023/02/09 06:09:18;;;;;;;14.40;8.30;;;;;;;-2.51;100.00;103156.97;5111006;28;20096;-74
2023/02/09 06:11:43;;;;;;;13.75;8.32;;;;;;;-2.51;100.00;103164.78;5112400;28;20054;-75
2023/02/09 06:14:09;;;;;;;13.73;8.30;;;;;;;-2.50;100.00;103163.03;5112382;28;20039;-75
2023/02/09 06:16:35;;;;;;;14.02;8.23;;;;;;;-2.49;100.00;103165.63;5112055;28;20036;-75
2023/02/09 06:19:01;;;;;;;13.75;8.60;;;;;;;-2.45;100.00;103165.63;5111850;28;20114;-74
2023/02/09 06:21:26;;;;;;;17.02;8.05;;;;;;;-2.44;100.00;103157.81;5111555;28;20054;-74
2023/02/09 06:23:51;;;;;;;13.25;7.95;;;;;;;-2.46;100.00;103170.00;5110434;28;20035;-74
2023/02/09 06:26:18;;;;;;;14.05;7.78;;;;;;;-2.49;100.00;103159.56;5092954;28;20084;-75
2023/02/09 06:28:43;;;;;;;15.77;8.30;;;;;;;-2.52;100.00;103170.84;5111969;28;20031;-75
2023/02/09 06:31:10;;;;;;;20.15;7.78;;;;;;;-2.55;100.00;103168.25;5109931;28;20115;-76
2023/02/09 06:33:36;;;;;;;16.35;8.32;;;;;;;-2.61;100.00;103170.84;5111503;28;20440;-74
2023/02/09 06:36:04;;;;;;;16.75;8.30;;;;;;;-2.61;100.00;103180.38;5112201;28;20104;-76
2023/02/09 06:38:31;;;;;;;13.07;8.02;;;;;;;-2.64;100.00;103175.16;5111857;28;20035;-74
2023/02/09 06:40:56;;;;;;;12.70;7.50;;;;;;;-2.59;100.00;103176.91;5111768;28;20039;-74
2023/02/09 06:43:21;;;;;;;18.20;8.95;;;;;;;-2.55;100.00;103162.16;5111044;28;20077;-75
2023/02/09 06:45:47;;;;;;;18.02;8.15;;;;;;;-2.53;100.00;103173.47;5110768;28;20436;-76
2023/02/09 06:48:12;;;;;;;16.77;7.95;;;;;;;-2.51;100.00;103170.00;5109703;28;20131;-73
2023/02/09 06:50:38;;;;;;;25.88;8.63;;;;;;;-2.50;100.00;103174.31;5111089;28;20047;-75
2023/02/09 06:53:04;;;;;;;14.20;7.13;;;;;;;-2.45;100.00;103183.88;5109638;28;20391;-74
2023/02/09 06:55:30;;;;;;;14.20;8.32;;;;;;;-2.42;100.00;103170.84;5111081;28;20036;-77
2023/02/09 06:57:56;;;;;;;14.93;7.93;;;;;;;-2.39;100.00;103170.84;5111438;28;20043;-74
2023/02/09 07:00:22;;;;;;;15.07;7.85;;;;;;;-2.40;100.00;103175.22;5110756;28;20513;-77
2023/02/09 07:02:48;;;;;;;14.88;7.40;;;;;;;-2.41;100.00;103170.00;5110877;28;20015;-77
2023/02/09 07:05:15;;;;;;;15.20;7.93;;;;;;;-2.37;100.00;103159.56;5111580;28;20046;-75
2023/02/09 07:07:41;;;;;;;13.57;7.55;;;;;;;-2.34;100.00;103162.19;5110959;28;20067;-74
2023/02/09 07:10:08;;;;;;;19.20;8.23;;;;;;;-2.32;100.00;103159.56;5111118;28;20041;-74
2023/02/09 07:12:33;;;;;;;15.48;8.32;;;;;;;-2.26;100.00;103167.38;5111556;28;20043;-75
2023/02/09 07:14:59;;;;;;;15.32;7.75;;;;;;;-2.24;100.00;103170.88;5111723;28;20046;-74
2023/02/09 07:17:27;;;;;;;14.02;7.70;;;;;;;-2.22;100.00;103170.88;5111452;28;20023;-74
2023/02/09 07:19:53;;;;;;;12.63;7.32;;;;;;;-2.25;100.00;103168.28;5111621;28;20092;-74
2023/02/09 07:22:18;;;;;;;18.23;8.27;;;;;;;-2.24;100.00;103173.50;5109826;28;20451;-75
2023/02/09 07:24:43;;;;;;;14.73;7.90;;;;;;;-2.24;100.00;103183.03;5110913;28;20039;-72
2023/02/09 07:27:09;;;;;;;14.32;7.82;;;;;;;-2.24;100.00;103183.94;5111370;28;20163;-75
2023/02/09 07:29:34;;;;;;;13.23;6.97;;;;;;;-2.23;100.00;103188.25;5110643;28;20477;-74
2023/02/09 07:32:00;;;;;;;15.70;8.30;;;;;;;-2.23;100.00;103180.44;5110929;28;20039;-74
2023/02/09 07:34:25;;;;;;;16.33;8.38;;;;;;;-2.17;100.00;103177.81;5110760;28;20028;-76
2023/02/09 07:36:50;;;;;;;19.67;8.73;;;;;;;-2.15;100.00;103185.66;5109442;28;20371;-76
2023/02/09 07:39:16;;;;;;;16.33;8.20;;;;;;;-2.08;100.00;103194.34;5110371;28;20032;-75
2023/02/09 07:41:42;;;;;;;13.93;8.02;;;;;;;-2.03;100.00;103192.59;5110628;28;20153;-75
2023/02/09 07:44:10;;;;;;;22.55;8.40;;;;;;;-1.97;100.00;103183.06;5110821;28;20032;-75
2023/02/09 07:46:35;;;;;;;16.88;7.78;;;;;;;-1.96;100.00;103181.31;5110818;28;20456;-75
2023/02/09 07:49:01;;;;;;;16.80;8.25;;;;;;;-1.87;100.00;103175.22;5110203;28;20035;-75
2023/02/09 07:51:27;;;;;;;13.82;7.70;;;;;;;-1.81;100.00;103191.75;5110583;28;20042;-76
2023/02/09 07:53:57;;;;;;;20.55;8.65;;;;;;;-1.69;100.00;103189.97;5108963;28;20026;-75
2023/02/09 07:56:23;;;;;;;20.30;8.65;;;;;;;-1.57;100.00;103191.69;5109127;28;20031;-75
2023/02/09 07:58:49;;;;;;;15.60;8.50;;;;;;;-1.50;100.00;103201.25;5110502;28;20035;-74
2023/02/09 08:01:17;;;;;;;13.82;7.88;;;;;;;-1.44;100.00;103193.41;5110191;28;20119;-75
2023/02/09 08:03:46;;;;;;;18.58;8.30;;;;;;;-1.37;100.00;103175.97;5110229;28;20031;-74
2023/02/09 08:06:41;;;;;;;13.52;7.82;;;;;;;-1.32;100.00;103200.34;5110205;28;20081;-74
2023/02/09 08:09:07;;;;;;;18.30;8.05;;;;;;;-1.20;100.00;103215.13;5110439;28;20051;-74
2023/02/09 08:11:42;;;;;;;20.50;7.50;;;;;;;-1.14;100.00;103209.88;5110409;28;20042;-74
2023/02/09 08:14:15;;;;;;;17.15;8.82;;;;;;;-1.09;100.00;103200.25;5110382;28;20063;-74
2023/02/09 08:16:41;;;;;;;12.95;8.10;;;;;;;-1.05;100.00;103191.53;5109087;28;20100;-77
2023/02/09 08:19:18;;;;;;;12.88;8.13;;;;;;;-1.01;100.00;103189.78;5110020;28;20035;-74
2023/02/09 08:21:46;;;;;;;20.17;7.88;;;;;;;-0.97;100.00;103187.16;5108909;28;20130;-76
2023/02/09 08:24:13;;;;;;;14.93;7.75;;;;;;;-0.91;100.00;103186.25;5110115;28;20036;-76
2023/02/09 08:26:39;;;;;;;15.45;8.20;;;;;;;-0.82;100.00;103183.59;5110176;28;20028;-75
2023/02/09 08:29:07;;;;;;;12.88;8.18;;;;;;;-0.71;100.00;103194.84;5091789;28;20549;-74
2023/02/09 08:31:32;;;;;;;22.75;8.38;;;;;;;-0.64;100.00;103195.69;5111786;28;20360;-75
2023/02/09 08:33:58;;;;;;;16.00;8.68;;;;;;;-0.56;100.00;103193.91;5114229;28;20031;-75
2023/02/09 08:36:23;;;;;;;15.93;8.18;;;;;;;-0.51;100.00;103186.00;5113902;28;20039;-77
2023/02/09 08:38:49;;;;;;;13.20;8.00;;;;;;;-0.41;100.00;103198.16;5114091;28;20179;-75
2023/02/09 08:41:16;;;;;;;14.15;8.10;;;;;;;-0.32;100.00;103191.16;5113819;28;20072;-76
2023/02/09 08:43:46;;;;;;;18.00;8.13;;;;;;;-0.26;100.00;103180.63;5095225;28;20100;-75
2023/02/09 08:46:12;;;;;;;20.83;9.13;;;;;;;-0.17;100.00;103184.94;5114273;28;20039;-73
2023/02/09 08:48:40;;;;;;;17.48;8.70;;;;;;;-0.10;100.00;103192.72;5113606;28;20062;-75
2023/02/09 08:51:08;;;;;;;13.93;8.82;;;;;;;0.02;100.00;103198.75;5113513;28;20114;-74
2023/02/09 08:53:33;;;;;;;13.52;8.05;;;;;;;0.16;100.00;103194.22;5112206;28;20115;-73
2023/02/09 08:55:59;;;;;;;16.70;8.68;;;;;;;0.23;100.00;103208.16;5112155;28;20206;-71
2023/02/09 08:58:25;;;;;;;16.77;8.52;;;;;;;0.34;100.00;103211.50;5112041;28;20032;-72
2023/02/09 09:00:52;;;;;;;17.25;8.50;;;;;;;0.42;100.00;103201.84;5113762;28;20039;-74
2023/02/09 09:03:18;;;;;;;15.20;8.88;;;;;;;0.49;100.00;103200.00;5112683;28;20055;-74
2023/02/09 09:05:44;;;;;;;15.00;8.57;;;;;;;0.60;100.00;103197.28;5112476;28;20055;-74
2023/02/09 09:08:09;;;;;;;15.55;9.05;;;;;;;0.74;100.00;103202.38;5113217;28;20486;-73
2023/02/09 09:10:34;;;;;;;27.10;8.65;;;;;;;0.80;100.00;103192.69;5113449;28;20110;-72
2023/02/09 09:13:00;;;;;;;15.88;8.93;;;;;;;0.85;100.00;103198.75;5113687;28;20024;-75
2023/02/09 09:15:25;;;;;;;20.23;9.48;;;;;;;0.97;100.00;103209.97;5114035;28;20344;-76
2023/02/09 09:17:51;;;;;;;16.88;8.93;;;;;;;1.02;100.00;103202.91;5113615;28;20043;-76
2023/02/09 09:20:16;;;;;;;15.98;9.18;;;;;;;1.11;100.00;103204.56;5113496;28;20043;-75
2023/02/09 09:22:42;;;;;;;19.48;8.93;;;;;;;1.21;100.00;103209.66;5113749;28;20063;-76
2023/02/09 09:25:07;;;;;;;16.85;9.05;;;;;;;1.36;100.00;103208.59;5112960;28;20122;-75
2023/02/09 09:27:35;;;;;;;15.35;9.38;;;;;;;1.39;100.00;103219.03;5113052;28;20028;-76
2023/02/09 09:30:03;;;;;;;16.67;9.52;;;;;;;1.45;100.00;103215.47;5113052;28;20086;-78
2023/02/09 09:32:28;;;;;;;16.50;9.65;;;;;;;1.53;100.00;103207.47;5113046;28;20119;-75
2023/02/09 09:34:56;;;;;;;17.25;10.10;;;;;;;1.62;100.00;103209.09;5111557;28;20046;-75
2023/02/09 09:37:22;;;;;;;19.73;9.88;;;;;;;1.69;100.00;103214.22;5111332;28;20031;-75
2023/02/09 09:39:47;;;;;;;21.52;10.82;;;;;;;1.76;100.00;103213.25;5113096;28;20146;-75
2023/02/09 09:42:33;;;;;;;19.60;9.13;;;;;;;1.91;100.00;103227.00;5112631;28;20059;-75
2023/02/09 09:44:59;;;;;;;16.73;9.52;;;;;;;2.02;100.00;103213.72;5112928;28;20050;-75
2023/02/09 09:47:36;;;;;;;16.75;9.10;;;;;;;2.09;100.00;103213.59;5112700;28;20111;-76
2023/02/09 09:50:13;;;;;;;16.88;10.00;;;;;;;2.18;100.00;103214.31;5112958;28;20427;-74
2023/02/09 09:52:42;;;;;;;18.75;10.10;;;;;;;2.14;100.00;103215.28;5111431;28;20035;-74
2023/02/09 09:55:18;;;;;;;21.35;10.93;;;;;;;2.20;100.00;103212.53;5111199;28;20041;-74
2023/02/09 09:57:44;;;;;;;16.42;9.57;;;;;;;2.26;100.00;103226.44;5112740;28;20047;-75
2023/02/09 10:00:22;;;;;;;17.42;10.55;;;;;;;2.32;100.00;103219.34;5112476;28;20031;-76
2023/02/09 10:02:47;;;;;;;18.20;10.45;;;;;;;2.38;100.00;103224.50;5112886;28;20122;-74
2023/02/09 10:05:16;;;;;;;14.43;9.95;;;;;;;2.55;100.00;103221.53;5112565;28;20070;-75
2023/02/09 10:07:48;;;;;;;19.70;11.30;;;;;;;2.71;100.00;103230.00;5112151;28;20081;-74
2023/02/09 10:10:20;;;;;;;18.27;11.18;;;;;;;2.77;100.00;103224.63;5112469;28;20444;-72
2023/02/09 10:12:48;;;;;;;21.10;11.30;;;;;;;2.77;100.00;103235.16;5112165;28;20037;-75
2023/02/09 10:15:34;;;;;;;22.02;10.48;;;;;;;2.87;100.00;103227.97;5112416;28;20036;-73
2023/02/09 10:18:00;;;;;;;20.58;10.80;;;;;;;3.15;100.00;103229.13;5111790;27;20040;-73
2023/02/09 10:20:41;;;;;;;18.13;11.25;;;;;;;3.32;100.00;103236.63;5112229;28;20108;-73
2023/02/09 10:23:22;;;;;;;19.35;11.07;;;;;;;3.41;100.00;103237.34;5110576;28;20024;-72
2023/02/09 10:25:50;;;;;;;18.20;11.77;;;;;;;3.65;100.00;103246.47;5112334;28;20057;-73
2023/02/09 10:28:28;;;;;;;20.92;11.15;;;;;;;4.12;100.00;103244.47;5111937;28;20059;-73
2023/02/09 10:30:57;;;;;;;18.73;10.50;;;;;;;4.48;100.00;103248.81;5111879;28;20103;-73
2023/02/09 10:33:22;;;;;;;17.70;11.30;;;;;;;4.99;100.00;103248.31;5111923;28;20034;-73
2023/02/09 10:36:39;;;;;;;17.30;11.05;;;;;;;5.22;100.00;103255.53;5110190;28;20114;-74
2023/02/09 10:39:11;;;;;;;21.67;10.95;;;;;;;5.50;100.00;103256.50;5101941;28;20122;-72
2023/02/09 10:41:42;;;;;;;23.98;11.23;;;;;;;5.90;100.00;103252.63;5111550;28;20495;-73
2023/02/09 10:44:16;;;;;;;18.58;11.07;;;;;;;6.24;97.37;103244.47;5111742;28;20023;-73
2023/02/09 10:46:42;;;;;;;17.23;11.52;;;;;;;6.57;94.88;103256.56;5111764;28;20055;-74
2023/02/09 10:49:27;;;;;;;20.85;11.55;;;;;;;6.90;93.82;103262.47;5111591;28;20156;-73
2023/02/09 10:52:15;;;;;;;24.65;12.68;;;;;;;7.19;88.95;103265.78;5111754;28;20031;-73
2023/02/09 10:54:49;;;;;;;22.15;11.75;;;;;;;7.56;85.01;103264.41;5111244;28;20088;-74
2023/02/09 10:57:27;;;;;;;20.60;12.02;;;;;;;7.32;86.37;103267.06;5111486;28;20425;-73
2023/02/09 11:00:19;;;;;;;21.70;13.20;;;;;;;6.76;93.68;103262.94;5111533;28;20036;-73
2023/02/09 11:02:53;;;;;;;21.25;12.95;;;;;;;6.14;100.00;103266.84;5111763;28;20535;-74
2023/02/09 11:05:21;;;;;;;26.02;12.90;;;;;;;5.77;100.00;103273.28;5111699;28;20043;-73
2023/02/09 11:07:55;;;;;;;20.48;12.45;;;;;;;5.68;100.00;103271.78;5111577;28;20412;-74
2023/02/09 11:10:21;;;;;;;21.02;12.40;;;;;;;5.58;100.00;103272.97;5110351;28;20438;-74
2023/02/09 11:12:47;;;;;;;19.45;12.40;;;;;;;5.61;100.00;103268.47;5111634;28;20099;-75
2023/02/09 11:15:24;;;;;;;20.15;11.85;;;;;;;5.53;100.00;103272.25;5111486;28;20324;-73
2023/02/09 11:17:58;;;;;;;24.65;12.60;;;;;;;5.51;100.00;103274.94;5111311;28;20031;-75
2023/02/09 11:20:35;;;;;;;21.55;13.25;;;;;;;5.42;100.00;103285.75;5111468;28;20076;-74